Time;durP1;ratioP1;P1;durP2;ratioP2;P2;SDS_P1;SDS_P2;PMS_P1;PMS_P2;Temp;Humidity;BMP_temperature;BMP_pressure;BME280_temperature;BME280_humidity;BME280_pressure;Samples;Min_cycle;Max_cycle;Signal;HPM_P1;HPM_P2
2024/03/13 00:00:13;;;;;;;4.33;3.53;;;10.10;99.90;;;;;;5051618;28;20210;-61
2024/03/13 00:02:41;;;;;;;4.83;3.77;;;10.20;99.90;;;;;;5051703;28;20209;-62
2024/03/13 00:05:10;;;;;;;6.27;3.77;;;10.20;99.90;;;;;;5051471;28;20267;-61
2024/03/13 00:07:37;;;;;;;4.27;3.43;;;10.20;99.90;;;;;;5051698;28;20304;-61
2024/03/13 00:10:05;;;;;;;6.23;3.63;;;10.20;99.90;;;;;;5051540;28;20591;-61
2024/03/13 00:12:33;;;;;;;4.83;3.70;;;10.20;99.90;;;;;;5051355;28;20288;-61
2024/03/13 00:15:00;;;;;;;4.43;3.43;;;10.10;99.90;;;;;;5051130;28;20248;-61
2024/03/13 00:17:28;;;;;;;5.13;3.33;;;10.00;99.90;;;;;;5051516;28;20217;-61
2024/03/13 00:19:55;;;;;;;4.47;3.30;;;10.00;99.90;;;;;;5051414;28;20202;-62
2024/03/13 00:22:23;;;;;;;4.03;2.80;;;10.00;99.90;;;;;;5051455;28;20252;-61
2024/03/13 00:24:51;;;;;;;3.70;3.20;;;10.00;99.90;;;;;;5050969;28;20225;-61
2024/03/13 00:27:19;;;;;;;4.30;3.43;;;10.00;99.90;;;;;;5051243;28;20663;-61
2024/03/13 00:29:47;;;;;;;4.53;3.07;;;10.00;99.90;;;;;;5051583;28;20301;-61
2024/03/13 00:32:16;;;;;;;3.70;2.73;;;10.00;99.90;;;;;;5051764;28;20206;-61
2024/03/13 00:34:45;;;;;;;4.77;3.27;;;10.00;99.90;;;;;;5054980;28;20221;-61
2024/03/13 00:37:12;;;;;;;3.20;2.43;;;10.00;99.90;;;;;;5055098;28;20210;-61
2024/03/13 00:39:39;;;;;;;3.17;2.10;;;9.90;99.90;;;;;;5055003;28;20206;-61
2024/03/13 00:42:06;;;;;;;2.93;2.17;;;9.90;99.90;;;;;;5055205;28;20213;-61
2024/03/13 00:44:33;;;;;;;3.00;2.40;;;10.00;99.90;;;;;;5054727;28;20241;-61
2024/03/13 00:47:01;;;;;;;2.73;2.27;;;9.90;99.90;;;;;;5054808;28;20221;-61
2024/03/13 00:49:27;;;;;;;2.87;2.10;;;9.90;99.90;;;;;;5054945;28;20209;-60
2024/03/13 00:51:55;;;;;;;3.53;1.90;;;9.80;99.90;;;;;;5054847;28;20296;-60
2024/03/13 00:54:22;;;;;;;2.17;1.77;;;9.80;99.90;;;;;;5054575;28;20291;-61
2024/03/13 00:56:49;;;;;;;2.47;1.87;;;9.80;99.90;;;;;;5054824;28;20240;-61
2024/03/13 00:59:16;;;;;;;2.23;1.70;;;9.80;99.90;;;;;;5054678;28;20209;-61
2024/03/13 01:01:44;;;;;;;2.10;1.70;;;9.90;99.90;;;;;;5054612;28;20232;-61
2024/03/13 01:04:11;;;;;;;2.67;1.63;;;9.90;99.90;;;;;;5054221;28;20225;-61
2024/03/13 01:06:38;;;;;;;2.63;1.37;;;9.80;99.90;;;;;;5054900;28;20233;-61
2024/03/13 01:09:09;;;;;;;1.87;1.40;;;9.70;99.90;;;;;;5054453;28;20548;-60
2024/03/13 01:11:36;;;;;;;1.37;1.10;;;9.70;99.90;;;;;;5054603;28;20206;-62
2024/03/13 01:14:04;;;;;;;1.87;1.20;;;9.70;99.90;;;;;;5053934;28;20730;-61
2024/03/13 01:16:31;;;;;;;1.40;1.10;;;9.70;99.90;;;;;;5054326;28;20205;-62
2024/03/13 01:18:58;;;;;;;1.57;1.20;;;9.70;99.90;;;;;;5054498;28;20293;-62
2024/03/13 01:21:25;;;;;;;1.50;1.00;;;9.70;99.90;;;;;;5054471;28;20213;-61
2024/03/13 01:23:52;;;;;;;1.10;1.00;;;9.70;99.90;;;;;;5054096;28;20225;-62
2024/03/13 01:26:20;;;;;;;1.00;0.90;;;9.70;99.90;;;;;;5054253;28;20221;-62
2024/03/13 01:28:47;;;;;;;1.10;1.00;;;9.70;99.90;;;;;;5054374;28;20316;-62
2024/03/13 01:31:14;;;;;;;1.97;0.97;;;9.70;99.90;;;;;;5054330;28;20209;-62
2024/03/13 01:33:41;;;;;;;1.17;0.93;;;9.70;99.90;;;;;;5053837;28;20229;-62
2024/03/13 01:36:08;;;;;;;0.83;0.67;;;9.80;99.90;;;;;;5054233;28;20621;-62
2024/03/13 01:38:34;;;;;;;1.03;0.93;;;9.80;99.90;;;;;;5054413;28;20202;-62
2024/03/13 01:55:10;;;;;;;1.70;1.03;;;9.60;99.90;;;;;;5053359;28;20224;-61
2024/03/13 01:58:07;;;;;;;1.20;0.80;;;9.60;99.90;;;;;;5053900;28;20259;-62
2024/03/13 02:03:22;;;;;;;1.07;0.80;;;9.60;99.90;;;;;;5053428;28;20224;-63
2024/03/13 02:05:50;;;;;;;0.60;0.53;;;9.60;99.90;;;;;;5053278;28;20236;-63
2024/03/13 02:08:18;;;;;;;0.67;0.67;;;9.60;99.90;;;;;;5053448;28;20205;-62
2024/03/13 02:10:46;;;;;;;0.80;0.60;;;9.60;99.90;;;;;;5053139;28;20703;-62
2024/03/13 02:13:15;;;;;;;0.70;0.70;;;9.50;99.90;;;;;;5053182;28;20329;-62
2024/03/13 02:15:44;;;;;;;1.70;0.90;;;9.50;99.90;;;;;;5053353;28;20626;-62
2024/03/13 02:18:19;;;;;;;1.57;0.60;;;9.50;99.90;;;;;;5053508;28;20213;-63
2024/03/13 02:20:47;;;;;;;1.00;0.70;;;9.60;99.90;;;;;;5053812;28;20211;-61
2024/03/13 02:23:19;;;;;;;0.93;0.50;;;9.70;99.90;;;;;;5053510;28;20312;-62
2024/03/13 02:25:46;;;;;;;0.40;0.40;;;9.70;99.90;;;;;;5035236;28;20236;-62
2024/03/13 02:28:14;;;;;;;0.67;0.43;;;9.70;99.90;;;;;;5035738;28;20212;-62
2024/03/13 02:30:42;;;;;;;0.87;0.53;;;9.70;99.90;;;;;;5035692;28;20205;-62
2024/03/13 02:33:11;;;;;;;0.60;0.47;;;9.60;99.90;;;;;;5035436;28;20257;-62
2024/03/13 02:35:40;;;;;;;0.57;0.57;;;9.70;99.90;;;;;;5035503;28;20256;-62
2024/03/13 02:38:07;;;;;;;0.60;0.47;;;9.70;99.90;;;;;;5035363;28;20275;-62
2024/03/13 02:40:34;;;;;;;1.60;0.63;;;9.70;99.90;;;;;;5035379;28;20691;-61
2024/03/13 02:43:01;;;;;;;0.70;0.60;;;9.70;99.90;;;;;;5035264;28;20229;-62
2024/03/13 02:45:28;;;;;;;0.57;0.40;;;9.70;99.90;;;;;;5034936;28;20226;-62
2024/03/13 02:47:55;;;;;;;1.10;0.50;;;9.70;99.90;;;;;;5035006;28;20339;-61
2024/03/13 02:50:22;;;;;;;1.20;0.67;;;9.60;99.90;;;;;;5034895;28;20209;-62
2024/03/13 02:52:49;;;;;;;0.70;0.50;;;9.50;99.90;;;;;;5034624;28;20206;-62
2024/03/13 02:55:16;;;;;;;1.63;0.60;;;9.40;99.90;;;;;;5033832;28;20644;-61
2024/03/13 02:57:44;;;;;;;0.50;0.50;;;9.10;99.90;;;;;;5035053;28;20259;-61
2024/03/13 03:00:12;;;;;;;1.50;0.73;;;8.90;99.90;;;;;;5035091;28;20209;-61
2024/03/13 03:02:40;;;;;;;2.20;0.60;;;8.90;99.90;;;;;;5034901;28;20206;-62
2024/03/13 03:05:07;;;;;;;0.70;0.60;;;8.80;99.90;;;;;;5034792;28;20678;-62
2024/03/13 03:07:34;;;;;;;0.80;0.70;;;8.60;99.90;;;;;;5034813;28;20291;-62
2024/03/13 03:10:00;;;;;;;0.90;0.70;;;8.50;99.90;;;;;;5034822;28;20210;-62
2024/03/13 03:12:27;;;;;;;0.73;0.70;;;8.50;99.90;;;;;;5034649;28;20207;-62
2024/03/13 03:14:55;;;;;;;1.07;0.50;;;8.40;99.90;;;;;;5034488;28;20230;-61
2024/03/13 03:17:22;;;;;;;0.70;0.70;;;8.30;99.90;;;;;;5034753;28;20764;-63
2024/03/13 03:19:49;;;;;;;0.73;0.73;;;8.20;99.90;;;;;;5034465;28;20205;-62
2024/03/13 03:22:17;;;;;;;0.77;0.70;;;8.10;99.90;;;;;;5034825;28;20292;-64
2024/03/13 03:24:44;;;;;;;0.70;0.70;;;8.10;99.90;;;;;;5034561;28;20222;-62
2024/03/13 03:27:11;;;;;;;1.67;0.80;;;8.00;99.90;;;;;;5034678;28;20313;-62
2024/03/13 03:29:38;;;;;;;0.80;0.77;;;8.10;99.90;;;;;;5034410;28;20651;-62
2024/03/13 03:32:05;;;;;;;1.90;1.13;;;8.10;99.90;;;;;;5034359;28;20234;-62
2024/03/13 03:34:32;;;;;;;0.93;0.80;;;8.20;99.90;;;;;;5034086;28;20234;-62
2024/03/13 03:37:01;;;;;;;2.07;0.90;;;8.20;99.90;;;;;;5034541;28;20233;-63
2024/03/13 03:39:29;;;;;;;1.23;0.90;;;8.30;99.90;;;;;;5034452;28;20738;-62
2024/03/13 03:41:56;;;;;;;1.27;0.77;;;8.30;99.90;;;;;;5034574;28;20208;-62
2024/03/13 03:44:23;;;;;;;1.10;0.87;;;8.40;99.90;;;;;;5034057;28;20253;-62
2024/03/13 03:46:50;;;;;;;0.67;0.67;;;8.40;99.90;;;;;;5034452;28;20229;-62
2024/03/13 03:49:17;;;;;;;0.73;0.73;;;8.30;99.90;;;;;;5034426;28;20233;-62
2024/03/13 03:51:44;;;;;;;2.00;0.67;;;8.20;99.90;;;;;;5034372;28;20256;-62
2024/03/13 03:54:11;;;;;;;1.00;0.90;;;8.30;99.90;;;;;;5043700;22;20231;-59
2024/03/13 03:56:39;;;;;;;1.27;0.80;;;8.30;99.90;;;;;;5011033;28;20230;-57
2024/03/13 03:59:07;;;;;;;0.80;0.50;;;8.10;99.90;;;;;;5010849;28;20726;-58
2024/03/13 04:01:33;;;;;;;1.87;1.20;;;8.10;99.90;;;;;;5010810;28;20230;-58
2024/03/13 04:04:00;;;;;;;0.90;0.87;;;8.10;99.90;;;;;;5007464;28;20286;-58
2024/03/13 04:06:27;;;;;;;0.50;0.50;;;8.00;99.90;;;;;;5008164;28;20251;-59
2024/03/13 04:08:54;;;;;;;0.90;0.80;;;7.90;99.90;;;;;;5011245;28;20203;-58
2024/03/13 04:11:21;;;;;;;0.60;0.60;;;7.90;99.90;;;;;;4995138;28;20833;-59
2024/03/13 04:13:48;;;;;;;2.73;2.00;;;7.90;99.90;;;;;;4994781;28;20226;-58
2024/03/13 04:16:16;;;;;;;2.90;1.03;;;8.00;99.90;;;;;;4967496;28;20670;-58
2024/03/13 04:18:43;;;;;;;0.60;0.60;;;8.20;99.90;;;;;;4982848;28;20223;-58
2024/03/13 04:21:10;;;;;;;2.47;0.83;;;8.10;99.90;;;;;;4978370;28;20692;-58
2024/03/13 04:23:38;;;;;;;0.60;0.60;;;8.10;99.90;;;;;;4994846;28;20310;-59
2024/03/13 04:26:05;;;;;;;0.80;0.80;;;7.90;99.90;;;;;;4994747;28;20696;-58
2024/03/13 04:28:32;;;;;;;0.83;0.70;;;7.90;99.90;;;;;;4994676;28;20204;-59
2024/03/13 04:31:01;;;;;;;1.30;0.80;;;7.90;99.90;;;;;;4994681;28;20216;-58
2024/03/13 04:33:28;;;;;;;1.40;1.00;;;7.90;99.90;;;;;;5010621;28;20611;-58
2024/03/13 04:35:56;;;;;;;1.00;0.90;;;7.90;99.90;;;;;;5010361;28;20569;-58
2024/03/13 04:38:24;;;;;;;2.10;1.17;;;7.90;99.90;;;;;;4994605;28;20204;-60
2024/03/13 04:40:51;;;;;;;1.30;0.90;;;7.90;99.90;;;;;;4994528;28;20299;-59
2024/03/13 04:43:17;;;;;;;2.93;1.20;;;7.90;99.90;;;;;;5010431;28;20227;-60
2024/03/13 04:45:44;;;;;;;1.30;0.80;;;7.90;99.90;;;;;;5010664;28;20299;-57
2024/03/13 04:48:13;;;;;;;1.23;0.80;;;7.80;99.90;;;;;;5010471;28;20224;-57
2024/03/13 04:50:39;;;;;;;0.80;0.80;;;7.80;99.90;;;;;;4994508;28;20215;-57
2024/03/13 04:53:06;;;;;;;2.30;1.83;;;7.70;99.90;;;;;;4994133;28;20234;-59
2024/03/13 04:55:33;;;;;;;2.03;1.10;;;7.70;99.90;;;;;;5010088;28;20215;-57
2024/03/13 04:58:00;;;;;;;1.17;0.87;;;7.70;99.90;;;;;;5010249;28;20649;-58
2024/03/13 05:00:27;;;;;;;1.60;1.00;;;7.60;99.90;;;;;;4994447;28;20203;-58
2024/03/13 05:02:55;;;;;;;2.83;1.20;;;7.60;99.90;;;;;;4994170;28;20208;-58
2024/03/13 05:05:21;;;;;;;1.00;0.70;;;7.70;99.90;;;;;;5009849;28;20235;-58
2024/03/13 05:07:48;;;;;;;1.10;0.93;;;7.80;99.90;;;;;;5010122;28;20223;-58
2024/03/13 05:10:16;;;;;;;0.77;0.70;;;7.90;99.90;;;;;;5009994;28;20242;-58
2024/03/13 05:12:43;;;;;;;1.30;1.20;;;7.90;99.90;;;;;;5009754;28;20681;-58
2024/03/13 05:15:10;;;;;;;1.10;1.00;;;8.00;99.90;;;;;;5009767;28;20251;-57
2024/03/13 05:17:38;;;;;;;1.63;1.20;;;8.00;99.90;;;;;;4993450;28;20689;-57
2024/03/13 05:20:07;;;;;;;1.53;0.90;;;8.00;99.90;;;;;;4993220;28;20208;-59
2024/03/13 05:22:34;;;;;;;1.20;1.00;;;8.00;99.90;;;;;;5009845;28;20204;-58
2024/03/13 05:25:01;;;;;;;1.33;1.13;;;8.10;99.90;;;;;;5009324;28;20235;-58
2024/03/13 05:27:27;;;;;;;1.10;1.00;;;8.10;99.90;;;;;;4993667;28;20246;-57
2024/03/13 05:29:55;;;;;;;1.17;1.07;;;8.20;99.90;;;;;;4993455;28;20215;-57
2024/03/13 05:32:22;;;;;;;3.87;1.10;;;8.30;99.90;;;;;;5009593;28;20204;-57
2024/03/13 05:34:49;;;;;;;1.60;0.97;;;8.30;99.90;;;;;;5009668;28;20239;-58
2024/03/13 05:37:16;;;;;;;1.40;1.03;;;8.30;99.90;;;;;;5009520;28;20196;-57
2024/03/13 05:39:43;;;;;;;1.40;1.20;;;8.30;99.90;;;;;;4993284;28;20635;-58
2024/03/13 05:42:10;;;;;;;1.50;0.90;;;8.30;99.90;;;;;;4993480;28;20214;-58
2024/03/13 05:44:38;;;;;;;1.57;1.20;;;8.40;99.90;;;;;;5009322;28;20327;-57
2024/03/13 05:47:05;;;;;;;2.40;0.87;;;8.40;99.90;;;;;;5009560;28;20708;-58
2024/03/13 05:49:32;;;;;;;1.50;0.90;;;8.50;99.90;;;;;;4993332;28;20298;-58
2024/03/13 05:51:59;;;;;;;1.20;1.07;;;8.50;99.90;;;;;;4993207;28;20211;-57
2024/03/13 05:54:26;;;;;;;1.17;0.97;;;8.60;99.90;;;;;;5008795;28;20597;-58
2024/03/13 05:56:54;;;;;;;1.40;1.20;;;8.60;99.90;;;;;;4992814;28;20585;-59
2024/03/13 05:59:21;;;;;;;1.90;1.10;;;8.60;99.90;;;;;;4993111;28;20203;-58
2024/03/13 06:01:47;;;;;;;1.23;0.90;;;8.60;99.90;;;;;;4993165;28;20281;-58
2024/03/13 06:04:16;;;;;;;1.50;1.00;;;8.70;99.90;;;;;;4992385;28;20219;-58
2024/03/13 06:06:43;;;;;;;3.00;1.20;;;8.80;99.90;;;;;;5008888;28;20236;-57
2024/03/13 06:09:10;;;;;;;2.40;1.40;;;8.90;99.90;;;;;;5009222;28;20295;-57
2024/03/13 06:11:37;;;;;;;1.97;1.40;;;8.90;99.90;;;;;;4993140;28;20238;-57
2024/03/13 06:14:04;;;;;;;2.30;1.30;;;9.00;99.90;;;;;;4992607;28;20315;-56
2024/03/13 06:16:31;;;;;;;1.87;1.37;;;9.10;99.90;;;;;;5009041;28;20258;-57
2024/03/13 06:18:58;;;;;;;2.43;1.20;;;9.10;99.90;;;;;;5008582;28;20765;-57
2024/03/13 06:21:25;;;;;;;1.43;1.10;;;9.10;99.90;;;;;;5008983;28;20287;-57
2024/03/13 06:23:58;;;;;;;2.03;1.43;;;9.20;99.90;;;;;;5008681;28;20330;-56
2024/03/13 06:26:26;;;;;;;2.27;1.50;;;9.20;99.90;;;;;;5008007;28;20204;-56
2024/03/13 06:31:39;;;;;;;1.93;1.40;;;9.40;99.90;;;;;;5006639;28;20247;-56
2024/03/13 06:34:06;;;;;;;1.60;1.50;;;9.50;99.90;;;;;;5008334;28;20227;-57
2024/03/13 06:36:32;;;;;;;1.93;1.43;;;9.60;99.90;;;;;;4992670;28;20207;-56
2024/03/13 06:38:59;;;;;;;2.30;1.63;;;9.60;99.90;;;;;;4992362;28;20736;-57
2024/03/13 06:41:26;;;;;;;1.83;1.43;;;9.70;99.90;;;;;;5008486;28;20699;-57
2024/03/13 06:43:54;;;;;;;2.43;1.70;;;9.80;99.90;;;;;;5007952;28;20278;-56
2024/03/13 06:46:24;;;;;;;1.90;1.40;;;10.00;99.90;;;;;;5000325;28;20215;-58
2024/03/13 06:48:51;;;;;;;1.30;1.20;;;10.00;99.90;;;;;;5007984;28;20233;-56
2024/03/13 06:51:18;;;;;;;3.70;1.30;;;10.00;99.90;;;;;;4992089;28;20234;-55
2024/03/13 06:53:44;;;;;;;2.00;1.37;;;10.00;99.90;;;;;;5007952;28;20236;-56
2024/03/13 06:56:11;;;;;;;3.10;1.60;;;10.10;99.90;;;;;;5008081;28;20349;-56
2024/03/13 06:58:38;;;;;;;2.20;1.30;;;10.30;99.90;;;;;;4991942;28;20208;-56
2024/03/13 07:01:12;;;;;;;2.90;1.37;;;10.30;99.90;;;;;;4991776;28;20677;-56
2024/03/13 07:03:39;;;;;;;3.67;1.63;;;10.30;99.90;;;;;;5007610;28;20227;-56
2024/03/13 07:06:06;;;;;;;2.87;1.20;;;10.30;99.90;;;;;;5007950;28;20278;-57
2024/03/13 07:08:35;;;;;;;2.17;1.30;;;10.40;99.90;;;;;;4991876;28;20220;-56
2024/03/13 07:11:05;;;;;;;2.10;1.63;;;10.40;99.90;;;;;;4991429;28;20214;-57
2024/03/13 07:13:32;;;;;;;4.23;1.33;;;10.50;99.90;;;;;;5007636;28;20314;-56
2024/03/13 07:15:59;;;;;;;2.80;1.10;;;10.70;99.90;;;;;;5007935;28;20223;-56
2024/03/13 07:18:26;;;;;;;3.50;1.40;;;10.80;99.90;;;;;;4991868;28;20210;-56
2024/03/13 07:20:53;;;;;;;0.90;0.90;;;11.00;99.90;;;;;;4991900;28;20207;-57
2024/03/13 07:23:20;;;;;;;2.53;1.03;;;11.10;99.90;;;;;;4991405;28;20227;-56
2024/03/13 07:25:48;;;;;;;1.77;1.10;;;11.30;99.90;;;;;;4967000;28;20294;-57
2024/03/13 07:28:15;;;;;;;2.30;1.17;;;11.40;99.90;;;;;;4967428;28;20234;-57
2024/03/13 07:30:42;;;;;;;2.07;1.20;;;11.50;99.90;;;;;;4991636;28;20211;-57
2024/03/13 07:33:11;;;;;;;3.73;1.20;;;11.60;99.90;;;;;;4991265;28;20217;-57
2024/03/13 07:35:38;;;;;;;2.03;1.20;;;11.60;99.90;;;;;;5007083;28;20211;-58
2024/03/13 07:38:07;;;;;;;1.80;1.50;;;11.90;99.90;;;;;;5007578;28;20690;-57
2024/03/13 07:40:33;;;;;;;1.43;1.10;;;12.20;99.90;;;;;;4991508;28;20673;-57
2024/03/13 07:43:00;;;;;;;2.40;1.50;;;12.40;99.90;;;;;;4991007;28;20257;-57
2024/03/13 07:45:28;;;;;;;1.27;0.73;;;12.50;99.90;;;;;;5007680;28;20630;-57
2024/03/13 07:47:54;;;;;;;1.03;0.80;;;12.60;99.90;;;;;;5007456;28;20227;-57
2024/03/13 07:50:23;;;;;;;1.77;0.80;;;12.80;99.90;;;;;;4999460;28;20307;-58
2024/03/13 07:52:49;;;;;;;0.93;0.70;;;12.80;99.90;;;;;;5007258;28;20657;-59
2024/03/13 07:55:17;;;;;;;2.20;1.37;;;12.80;99.90;;;;;;5007232;28;20239;-58
2024/03/13 07:57:44;;;;;;;0.80;0.57;;;12.80;99.90;;;;;;5007255;28;20234;-58
2024/03/13 08:00:12;;;;;;;0.53;0.53;;;12.70;99.90;;;;;;5007208;28;20594;-57
2024/03/13 08:02:39;;;;;;;1.30;1.20;;;12.80;99.90;;;;;;4991158;28;20215;-57
2024/03/13 08:05:06;;;;;;;0.50;0.50;;;12.80;99.90;;;;;;4990457;28;20651;-58
2024/03/13 08:07:33;;;;;;;0.50;0.50;;;12.90;99.90;;;;;;5007161;28;20224;-57
2024/03/13 08:10:00;;;;;;;4.77;0.73;;;13.00;99.90;;;;;;5007328;28;20219;-55
2024/03/13 08:12:26;;;;;;;0.60;0.60;;;13.10;99.90;;;;;;4991007;28;20626;-56
2024/03/13 08:14:55;;;;;;;1.70;0.90;;;13.10;99.90;;;;;;4990809;28;20239;-56
2024/03/13 08:17:22;;;;;;;0.80;0.80;;;13.10;99.90;;;;;;4990804;28;20208;-56
2024/03/13 08:19:49;;;;;;;1.77;1.30;;;13.20;99.90;;;;;;5007174;28;20211;-56
2024/03/13 08:22:16;;;;;;;1.47;0.70;;;13.30;99.90;;;;;;5006665;28;20211;-56
2024/03/13 08:24:44;;;;;;;0.93;0.63;;;13.30;99.90;;;;;;4990777;28;20228;-56
2024/03/13 08:27:11;;;;;;;1.00;0.57;;;13.40;99.90;;;;;;4990842;28;20215;-57
2024/03/13 08:29:39;;;;;;;1.47;0.80;;;13.50;99.90;;;;;;4990829;28;20216;-56
2024/03/13 08:32:06;;;;;;;1.27;0.70;;;13.50;99.90;;;;;;4990514;28;20223;-58
2024/03/13 08:34:33;;;;;;;1.53;0.53;;;13.60;99.90;;;;;;5006563;28;20323;-56
2024/03/13 08:37:00;;;;;;;1.03;0.70;;;13.70;99.90;;;;;;5006976;28;20649;-57
2024/03/13 08:39:27;;;;;;;2.83;0.60;;;13.80;99.90;;;;;;4991025;28;20226;-57
2024/03/13 08:41:54;;;;;;;1.20;0.73;;;14.00;99.90;;;;;;4990891;28;20208;-56
2024/03/13 08:44:21;;;;;;;0.87;0.60;;;14.00;99.90;;;;;;4990574;28;20651;-57
2024/03/13 08:46:49;;;;;;;0.97;0.60;;;14.10;99.90;;;;;;4990495;28;20211;-57
2024/03/13 08:49:16;;;;;;;1.37;0.70;;;14.30;99.90;;;;;;4990339;28;20315;-56
2024/03/13 08:51:43;;;;;;;0.50;0.50;;;14.50;99.90;;;;;;5007517;28;20259;-57
2024/03/13 08:54:11;;;;;;;0.97;0.83;;;14.50;99.90;;;;;;4991666;28;20239;-56
2024/03/13 08:56:38;;;;;;;0.80;0.70;;;14.50;99.90;;;;;;5010194;28;20207;-57
2024/03/13 08:59:05;;;;;;;0.90;0.80;;;14.50;99.90;;;;;;5010029;28;20298;-57
2024/03/13 09:01:32;;;;;;;1.13;0.70;;;14.40;99.90;;;;;;4993953;28;20295;-58
2024/03/13 09:03:59;;;;;;;2.33;0.77;;;14.30;99.90;;;;;;4969310;28;20939;-58
2024/03/13 09:06:26;;;;;;;0.83;0.73;;;14.20;99.90;;;;;;4993995;28;20244;-64
2024/03/13 09:08:53;;;;;;;0.50;0.47;;;14.20;99.90;;;;;;4993868;28;20246;-60
2024/03/13 09:11:20;;;;;;;0.93;0.70;;;14.20;99.90;;;;;;4993573;28;20204;-61
2024/03/13 09:13:46;;;;;;;2.43;0.60;;;14.10;99.90;;;;;;5009324;28;20721;-61
2024/03/13 09:16:14;;;;;;;3.57;1.00;;;14.10;99.90;;;;;;5009609;28;20215;-62
2024/03/13 09:18:41;;;;;;;1.10;1.00;;;14.10;99.90;;;;;;4993856;28;20250;-62
2024/03/13 09:21:07;;;;;;;1.03;0.93;;;14.10;99.90;;;;;;4993472;28;20290;-61
2024/03/13 09:23:34;;;;;;;1.03;0.93;;;14.10;99.90;;;;;;4993330;28;20644;-61
2024/03/13 09:26:01;;;;;;;1.10;0.83;;;14.20;99.90;;;;;;4993516;28;20343;-59
2024/03/13 09:28:28;;;;;;;1.87;0.90;;;14.20;99.90;;;;;;5009725;28;20230;-60
2024/03/13 09:30:55;;;;;;;1.80;0.90;;;14.10;99.90;;;;;;5009486;28;20303;-57
2024/03/13 09:33:21;;;;;;;3.08;1.00;;;14.20;99.90;;;;;;5011923;28;20448;-60
2024/03/13 09:35:48;;;;;;;1.27;0.90;;;14.30;99.90;;;;;;4993166;28;20222;-59
2024/03/13 09:38:17;;;;;;;2.73;1.00;;;14.40;99.90;;;;;;4992970;28;20211;-59
2024/03/13 09:40:44;;;;;;;1.57;0.80;;;14.50;99.90;;;;;;5009298;28;20218;-59
2024/03/13 09:43:11;;;;;;;2.20;0.67;;;14.50;99.90;;;;;;5009220;28;20215;-59
2024/03/13 09:45:38;;;;;;;1.67;0.97;;;14.50;99.90;;;;;;4993021;28;20654;-58
2024/03/13 09:48:06;;;;;;;1.03;0.77;;;14.50;99.90;;;;;;4992881;28;20228;-59
2024/03/13 09:50:33;;;;;;;2.63;1.40;;;14.50;99.90;;;;;;5008809;28;20212;-65
2024/03/13 09:53:00;;;;;;;2.63;1.10;;;14.40;99.90;;;;;;5008723;28;20208;-63
2024/03/13 09:55:27;;;;;;;2.37;0.93;;;14.40;99.90;;;;;;5050369;23;20234;-63
2024/03/13 09:57:55;;;;;;;0.83;0.80;;;14.40;99.90;;;;;;5024663;28;20668;-59
2024/03/13 10:00:23;;;;;;;1.20;1.10;;;14.30;99.90;;;;;;5007822;28;20240;-61
2024/03/13 10:02:50;;;;;;;5.53;3.17;;;14.10;99.90;;;;;;5025299;28;20240;-60
2024/03/13 10:05:17;;;;;;;1.50;1.30;;;14.00;99.90;;;;;;5005879;28;20318;-61
2024/03/13 10:07:44;;;;;;;1.80;1.37;;;14.10;99.90;;;;;;5040104;28;20214;-61
2024/03/13 10:10:17;;;;;;;1.27;1.00;;;14.10;99.90;;;;;;5039871;28;20264;-61
2024/03/13 10:12:44;;;;;;;1.50;1.03;;;14.20;99.90;;;;;;5041520;28;20211;-60
2024/03/13 10:15:15;;;;;;;1.27;1.00;;;14.40;99.90;;;;;;5037539;28;20234;-61
2024/03/13 10:17:43;;;;;;;0.93;0.83;;;14.40;99.90;;;;;;5041726;28;20588;-60
2024/03/13 10:20:13;;;;;;;2.27;1.10;;;14.50;99.90;;;;;;5037687;28;20210;-60
2024/03/13 10:22:40;;;;;;;1.10;1.00;;;14.50;99.90;;;;;;5041246;28;20278;-60
2024/03/13 10:25:09;;;;;;;1.77;1.10;;;14.60;99.90;;;;;;5019247;28;20231;-59
2024/03/13 10:27:38;;;;;;;1.83;1.10;;;14.70;99.90;;;;;;5027761;28;20215;-62
2024/03/13 10:30:07;;;;;;;1.23;0.90;;;14.80;99.90;;;;;;5027632;28;20258;-60
2024/03/13 10:32:34;;;;;;;1.27;1.00;;;14.80;99.90;;;;;;5027892;28;20215;-60
2024/03/13 10:35:00;;;;;;;1.53;1.03;;;14.80;99.90;;;;;;5027436;28;20349;-61
2024/03/13 10:37:27;;;;;;;1.10;0.80;;;14.90;99.90;;;;;;5027717;28;20261;-61
2024/03/13 10:39:58;;;;;;;2.27;1.37;;;15.00;99.90;;;;;;5035853;28;20218;-62
2024/03/13 10:42:25;;;;;;;1.70;0.90;;;15.10;99.90;;;;;;5027515;28;20226;-61
2024/03/13 10:44:51;;;;;;;1.03;0.80;;;15.20;99.90;;;;;;5027186;28;20582;-62
2024/03/13 10:47:18;;;;;;;1.43;0.83;;;15.30;99.90;;;;;;5027742;28;20211;-61
2024/03/13 10:49:46;;;;;;;0.80;0.60;;;15.30;99.90;;;;;;5027782;28;20696;-62
2024/03/13 10:52:13;;;;;;;0.53;0.53;;;15.40;99.90;;;;;;5027077;28;20207;-62
2024/03/13 10:54:41;;;;;;;1.27;0.53;;;15.50;99.90;;;;;;5027580;28;20243;-62
2024/03/13 10:57:09;;;;;;;2.03;0.80;;;15.60;99.90;;;;;;5035870;28;20297;-62
2024/03/13 10:59:36;;;;;;;1.80;1.30;;;15.80;99.90;;;;;;5027474;28;20210;-62
2024/03/13 11:02:03;;;;;;;1.47;0.90;;;15.90;99.90;;;;;;5027479;28;20215;-61
2024/03/13 11:04:30;;;;;;;1.27;0.70;;;16.00;99.90;;;;;;5035068;28;20235;-61
2024/03/13 11:06:58;;;;;;;1.97;0.60;;;16.10;99.90;;;;;;5027754;28;20213;-62
2024/03/13 11:09:24;;;;;;;1.17;0.70;;;16.00;99.90;;;;;;5035565;28;20602;-63
2024/03/13 11:11:52;;;;;;;1.45;0.63;;;16.00;99.90;;;;;;5035753;28;20211;-61
2024/03/13 11:14:19;;;;;;;1.23;0.88;;;16.00;99.90;;;;;;5026987;28;20226;-60
2024/03/13 11:16:48;;;;;;;1.88;0.93;;;16.00;99.90;;;;;;5032244;28;20668;-60
2024/03/13 11:19:15;;;;;;;1.65;1.00;;;16.00;99.90;;;;;;5028632;28;20310;-62
2024/03/13 11:21:44;;;;;;;1.38;0.77;;;16.10;99.90;;;;;;5035519;28;20214;-62
2024/03/13 11:24:11;;;;;;;1.15;0.90;;;16.20;99.90;;;;;;5026877;28;20222;-61
2024/03/13 11:26:37;;;;;;;1.20;1.07;;;16.30;99.90;;;;;;5027174;28;20218;-61
2024/03/13 11:29:05;;;;;;;1.30;0.90;;;16.20;99.90;;;;;;5042617;28;20245;-61
2024/03/13 11:31:33;;;;;;;0.97;0.80;;;16.10;99.90;;;;;;5031006;28;20215;-60
2024/03/13 11:34:00;;;;;;;1.77;0.70;;;15.90;99.90;;;;;;5030692;28;20230;-61
2024/03/13 11:36:27;;;;;;;1.10;0.63;;;15.90;99.90;;;;;;5030544;28;20241;-61
2024/03/13 11:38:54;;;;;;;2.87;1.00;;;15.90;99.90;;;;;;5022482;28;20626;-62
2024/03/13 11:41:20;;;;;;;3.10;2.43;;;15.90;99.90;;;;;;5021773;28;20259;-62
2024/03/13 11:43:47;;;;;;;2.65;1.30;;;15.90;99.90;;;;;;5040293;28;20231;-61
2024/03/13 11:46:17;;;;;;;3.97;1.30;;;16.00;99.90;;;;;;5026216;28;20214;-61
2024/03/13 11:48:44;;;;;;;1.10;0.90;;;16.00;99.90;;;;;;5026571;28;20231;-62
2024/03/13 11:51:13;;;;;;;1.67;0.87;;;16.10;99.90;;;;;;5035379;28;20583;-61
2024/03/13 11:53:41;;;;;;;0.80;0.63;;;16.10;99.90;;;;;;5026570;28;20234;-59
2024/03/13 11:56:09;;;;;;;0.98;0.95;;;16.20;99.90;;;;;;5034798;28;20314;-61
2024/03/13 11:58:36;;;;;;;3.00;1.42;;;16.10;99.90;;;;;;5026390;28;20473;-62
2024/03/13 12:01:03;;;;;;;2.20;1.10;;;16.00;99.90;;;;;;5034927;28;20211;-60
2024/03/13 12:03:40;;;;;;;4.43;1.00;;;16.00;99.90;;;;;;5038825;28;20208;-61
2024/03/13 12:06:10;;;;;;;1.50;1.38;;;15.80;99.90;;;;;;5029788;28;20432;-61
2024/03/13 12:08:38;;;;;;;1.50;1.10;;;15.30;99.90;;;;;;5026016;28;20493;-60
2024/03/13 12:11:05;;;;;;;1.27;1.10;;;14.80;99.90;;;;;;5026419;28;20253;-64
2024/03/13 12:13:33;;;;;;;1.92;0.98;;;14.50;99.90;;;;;;5026818;28;20221;-62
2024/03/13 12:16:00;;;;;;;2.33;1.10;;;14.70;99.90;;;;;;5026454;28;20210;-62
2024/03/13 12:18:27;;;;;;;1.67;0.80;;;15.00;99.90;;;;;;5034650;28;20214;-64
2024/03/13 12:20:54;;;;;;;2.22;1.30;;;15.20;99.90;;;;;;5026733;28;20211;-63
2024/03/13 12:23:23;;;;;;;1.92;1.40;;;15.40;99.90;;;;;;5042796;28;20217;-62
2024/03/13 12:25:50;;;;;;;5.80;4.68;;;15.60;99.90;;;;;;5026087;28;20740;-62
2024/03/13 12:28:20;;;;;;;1.97;1.77;;;15.70;99.90;;;;;;5036600;28;20210;-62
2024/03/13 12:30:48;;;;;;;4.43;1.80;;;15.90;99.90;;;;;;5030130;28;20231;-60
2024/03/13 12:33:14;;;;;;;1.20;1.10;;;15.90;99.90;;;;;;5039564;28;20625;-62
2024/03/13 12:35:41;;;;;;;1.30;1.20;;;16.10;99.90;;;;;;5041703;28;20293;-60
2024/03/13 12:38:08;;;;;;;1.48;1.17;;;16.30;99.90;;;;;;5040988;28;20617;-60
2024/03/13 12:40:35;;;;;;;1.58;1.15;;;16.30;99.90;;;;;;5030024;28;20769;-61
2024/03/13 12:43:07;;;;;;;3.55;1.08;;;15.80;99.90;;;;;;5038305;28;20203;-60
2024/03/13 12:45:33;;;;;;;2.50;1.65;;;15.80;99.90;;;;;;5029679;28;20238;-60
2024/03/13 12:48:02;;;;;;;2.90;1.67;;;16.00;99.90;;;;;;5029812;28;20207;-60
2024/03/13 12:50:29;;;;;;;2.80;2.08;;;16.20;99.90;;;;;;5037954;28;20219;-60
2024/03/13 12:52:57;;;;;;;2.72;1.90;;;16.40;99.90;;;;;;5029820;28;20213;-60
2024/03/13 12:55:24;;;;;;;2.58;1.38;;;16.60;99.90;;;;;;5037254;28;20234;-60
2024/03/13 12:57:52;;;;;;;2.55;1.45;;;16.80;99.90;;;;;;5038323;28;20207;-60
2024/03/13 13:00:19;;;;;;;3.15;1.92;;;16.90;99.90;;;;;;5029355;28;20250;-61
2024/03/13 13:02:46;;;;;;;2.58;2.20;;;17.00;99.90;;;;;;5043815;28;20244;-61
2024/03/13 13:05:13;;;;;;;3.03;1.40;;;17.00;99.90;;;;;;5031410;28;20578;-61
2024/03/13 13:07:49;;;;;;;2.30;1.65;;;17.00;99.90;;;;;;5029383;28;20213;-60
2024/03/13 13:10:16;;;;;;;1.45;1.30;;;16.90;99.90;;;;;;5037140;28;20592;-61